createdAt,value
2022-12-14T00:01:30.100Z,13.03
2022-12-14T00:03:57.028Z,10.30
2022-12-14T00:06:29.352Z,7.17
2022-12-14T00:08:58.322Z,6.53
2022-12-14T00:11:25.742Z,9.53
2022-12-14T00:13:57.419Z,7.30
2022-12-14T00:16:26.153Z,9.37
2022-12-14T00:18:54.844Z,8.53
2022-12-14T00:21:22.326Z,5.67
2022-12-14T00:23:50.696Z,10.60
2022-12-14T00:26:18.782Z,7.87
2022-12-14T00:28:46.863Z,9.70
2022-12-14T00:31:14.137Z,6.07
2022-12-14T00:33:41.084Z,8.93
2022-12-14T00:36:09.949Z,5.20
2022-12-14T00:38:36.978Z,9.83
2022-12-14T00:41:05.127Z,8.60
2022-12-14T00:43:32.786Z,7.43
2022-12-14T00:46:02.204Z,5.33
2022-12-14T00:48:31.632Z,5.47
2022-12-14T00:50:58.971Z,6.40
2022-12-14T00:53:25.635Z,5.40
2022-12-14T00:55:52.409Z,8.87
2022-12-14T00:58:21.320Z,6.80
2022-12-14T01:00:59.384Z,4.37
2022-12-14T01:03:26.848Z,5.73
2022-12-14T01:05:54.041Z,6.63
2022-12-14T01:08:21.280Z,6.83
2022-12-14T01:10:48.977Z,6.07
2022-12-14T01:13:15.719Z,6.17
2022-12-14T01:15:42.534Z,7.67
2022-12-14T01:18:09.281Z,7.90
2022-12-14T01:20:36.318Z,5.80
2022-12-14T01:23:02.897Z,12.03
2022-12-14T01:25:29.605Z,8.30
2022-12-14T01:27:56.614Z,8.20
2022-12-14T01:30:23.457Z,5.90
2022-12-14T01:32:50.124Z,6.97
2022-12-14T01:35:17.265Z,5.63
2022-12-14T01:37:44.419Z,6.87
2022-12-14T01:40:11.551Z,5.93
2022-12-14T01:42:39.383Z,6.87
2022-12-14T01:45:06.776Z,6.30
2022-12-14T01:47:42.959Z,5.40
2022-12-14T01:50:44.161Z,6.90
2022-12-14T01:53:20.440Z,14.27
2022-12-14T01:55:52.663Z,8.07
2022-12-14T01:58:28.857Z,8.67
2022-12-14T02:00:59.883Z,7.37
2022-12-14T02:03:50.332Z,6.93
2022-12-14T02:06:25.096Z,6.33
2022-12-14T02:08:53.791Z,7.37
2022-12-14T02:11:39.029Z,7.07
2022-12-14T02:14:05.635Z,7.00
2022-12-14T02:16:32.575Z,7.27
2022-12-14T02:18:59.182Z,6.30
2022-12-14T02:22:02.915Z,5.63
2022-12-14T02:24:48.769Z,6.30
2022-12-14T02:27:32.912Z,6.13
2022-12-14T02:30:05.029Z,6.73
2022-12-14T02:32:59.581Z,6.47
2022-12-14T02:35:31.070Z,6.13
2022-12-14T02:38:16.716Z,7.13
2022-12-14T02:40:52.520Z,7.67
2022-12-14T02:43:25.452Z,5.50
2022-12-14T02:46:14.084Z,5.90
2022-12-14T02:48:49.123Z,8.03
2022-12-14T02:51:40.737Z,5.37
2022-12-14T02:54:17.786Z,6.73
2022-12-14T02:56:51.423Z,6.33
2022-12-14T02:59:19.312Z,5.20
2022-12-14T03:01:50.080Z,4.87
2022-12-14T03:04:18.886Z,7.73
2022-12-14T03:07:02.584Z,8.63
2022-12-14T03:09:31.567Z,6.30
2022-12-14T03:12:07.870Z,8.30
2022-12-14T03:14:40.758Z,8.73
2022-12-14T03:17:17.631Z,6.27
2022-12-14T03:19:52.528Z,9.50
2022-12-14T03:22:26.248Z,6.30
2022-12-14T03:24:58.473Z,6.13
2022-12-14T03:27:32.885Z,8.30
2022-12-14T03:30:09.672Z,5.20
2022-12-14T03:32:42.771Z,6.33
2022-12-14T03:35:24.036Z,8.23
2022-12-14T03:38:03.798Z,7.17
2022-12-14T03:40:42.215Z,7.40
2022-12-14T03:43:20.270Z,6.27
2022-12-14T03:45:57.645Z,6.80
2022-12-14T03:48:24.313Z,6.93
2022-12-14T03:51:38.227Z,7.27
2022-12-14T03:54:20.093Z,8.27
2022-12-14T03:56:57.314Z,7.30
2022-12-14T03:59:54.088Z,8.57
2022-12-14T04:02:30.683Z,8.97
2022-12-14T04:05:08.309Z,8.70
2022-12-14T04:08:11.553Z,7.60
2022-12-14T04:11:05.815Z,11.47
2022-12-14T04:14:01.958Z,7.83
2022-12-14T04:16:53.750Z,6.43
2022-12-14T04:19:26.906Z,7.77
2022-12-14T04:21:58.696Z,8.47
2022-12-14T04:25:07.234Z,9.23
2022-12-14T04:27:47.064Z,8.93
2022-12-14T04:30:14.925Z,9.50
2022-12-14T04:33:22.150Z,6.83
2022-12-14T04:35:50.318Z,14.97
2022-12-14T04:38:22.040Z,6.90
2022-12-14T04:40:55.796Z,6.47
2022-12-14T04:43:28.113Z,9.67
2022-12-14T04:46:07.990Z,7.43
2022-12-14T04:48:41.880Z,8.60
2022-12-14T04:51:13.514Z,8.80
2022-12-14T04:53:44.100Z,8.77
2022-12-14T04:56:20.372Z,9.07
2022-12-14T04:58:47.266Z,10.47
2022-12-14T05:01:54.490Z,8.67
2022-12-14T05:04:34.128Z,10.70
2022-12-14T05:07:25.146Z,9.60
2022-12-14T05:10:04.625Z,10.10
2022-12-14T05:12:43.004Z,9.60
2022-12-14T05:15:18.931Z,9.87
2022-12-14T05:17:45.987Z,8.63
2022-12-14T05:20:15.563Z,10.30
2022-12-14T05:22:42.455Z,11.97
2022-12-14T05:25:09.385Z,9.83
2022-12-14T05:27:36.500Z,9.57
2022-12-14T05:30:04.859Z,8.83
2022-12-14T05:32:32.445Z,14.03
2022-12-14T05:34:59.401Z,9.47
2022-12-14T05:37:26.264Z,12.70
2022-12-14T05:39:53.958Z,11.43
2022-12-14T05:42:20.618Z,9.67
2022-12-14T05:44:47.398Z,13.97
2022-12-14T05:47:14.424Z,11.13
2022-12-14T05:49:41.108Z,11.80
2022-12-14T05:52:08.212Z,11.57
2022-12-14T05:54:35.033Z,8.73
2022-12-14T05:57:01.729Z,10.70
2022-12-14T05:59:28.472Z,11.67
2022-12-14T06:01:55.213Z,9.93
2022-12-14T06:04:22.435Z,14.63
2022-12-14T06:06:50.409Z,13.17
2022-12-14T06:09:18.082Z,11.20
2022-12-14T06:11:46.436Z,9.27
2022-12-14T06:14:13.930Z,9.10
2022-12-14T06:16:42.466Z,10.23
2022-12-14T06:19:10.523Z,10.83
2022-12-14T06:21:39.412Z,11.50
2022-12-14T06:24:07.724Z,10.77
2022-12-14T06:26:42.171Z,17.43
2022-12-14T06:29:22.446Z,14.17
2022-12-14T06:31:49.877Z,11.73
2022-12-14T06:34:16.825Z,12.43
2022-12-14T06:36:43.504Z,11.67
2022-12-14T06:39:15.571Z,11.47
2022-12-14T06:41:42.692Z,12.77
2022-12-14T06:44:14.242Z,11.03
2022-12-14T06:46:41.695Z,11.33
2022-12-14T06:49:13.639Z,25.70
2022-12-14T06:51:40.839Z,13.47
2022-12-14T06:54:10.127Z,12.40
2022-12-14T06:56:37.809Z,11.73
2022-12-14T06:59:05.332Z,10.83
2022-12-14T07:01:32.098Z,11.53
2022-12-14T07:03:59.672Z,12.43
2022-12-14T07:06:28.697Z,10.87
2022-12-14T07:08:56.948Z,11.97
2022-12-14T07:11:24.535Z,11.30
2022-12-14T07:13:51.687Z,13.00
2022-12-14T07:16:24.644Z,13.63
2022-12-14T07:18:53.324Z,11.90
2022-12-14T07:21:21.265Z,11.80
2022-12-14T07:23:49.340Z,12.20
2022-12-14T07:26:19.075Z,11.03
2022-12-14T07:28:46.092Z,11.03
2022-12-14T07:31:19.321Z,13.83
2022-12-14T07:33:46.059Z,12.43
2022-12-14T07:36:15.798Z,12.97
2022-12-14T07:38:44.503Z,13.83
2022-12-14T07:41:22.051Z,13.13
2022-12-14T07:43:50.729Z,13.47
2022-12-14T07:46:20.867Z,18.50
2022-12-14T07:48:50.923Z,12.33
2022-12-14T07:51:21.326Z,11.97
2022-12-14T07:53:48.968Z,13.93
2022-12-14T07:56:21.564Z,14.57
2022-12-14T07:58:48.734Z,12.47
2022-12-14T08:01:24.536Z,12.83
2022-12-14T08:04:01.157Z,12.87
2022-12-14T08:06:29.873Z,14.00
2022-12-14T08:08:57.608Z,13.87
2022-12-14T08:11:25.475Z,13.23
2022-12-14T08:13:57.042Z,15.20
2022-12-14T08:16:24.502Z,16.27
2022-12-14T08:18:53.883Z,16.40
2022-12-14T08:21:22.069Z,15.10
2022-12-14T08:23:49.882Z,15.27
2022-12-14T08:26:17.064Z,17.90
2022-12-14T08:28:43.752Z,15.93
2022-12-14T08:31:16.331Z,13.40
2022-12-14T08:33:44.138Z,12.83
2022-12-14T08:36:16.562Z,14.57
2022-12-14T08:38:43.849Z,13.43
2022-12-14T08:41:13.732Z,15.20
2022-12-14T08:43:40.928Z,14.30
2022-12-14T08:46:09.474Z,17.23
2022-12-14T08:48:36.498Z,15.43
2022-12-14T08:51:09.546Z,15.47
2022-12-14T08:53:37.691Z,14.00
2022-12-14T08:56:05.893Z,23.30
2022-12-14T08:58:33.827Z,18.33
2022-12-14T09:01:03.273Z,14.83
2022-12-14T09:03:30.308Z,15.50
2022-12-14T09:05:57.281Z,17.20
2022-12-14T09:08:24.077Z,15.93
2022-12-14T09:10:53.818Z,21.20
2022-12-14T09:13:21.839Z,16.30
2022-12-14T09:15:57.915Z,16.10
2022-12-14T09:18:24.765Z,15.17
2022-12-14T09:20:54.332Z,25.77
2022-12-14T09:23:23.167Z,14.30
2022-12-14T09:26:04.684Z,21.80
2022-12-14T09:28:33.123Z,14.13
2022-12-14T09:31:05.718Z,15.47
2022-12-14T09:33:33.697Z,17.97
2022-12-14T09:36:06.381Z,15.43
2022-12-14T09:38:35.364Z,17.87
2022-12-14T09:41:07.443Z,15.00
2022-12-14T09:43:39.448Z,18.37
2022-12-14T09:46:13.058Z,14.83
2022-12-14T09:48:42.057Z,14.87
2022-12-14T09:51:15.170Z,17.77
2022-12-14T09:53:45.110Z,15.70
2022-12-14T09:56:16.080Z,17.43
2022-12-14T09:58:51.759Z,17.50
2022-12-14T10:01:22.212Z,25.40
2022-12-14T10:04:06.174Z,16.90
2022-12-14T10:07:05.659Z,17.57
2022-12-14T10:09:40.071Z,15.70
2022-12-14T10:12:18.984Z,17.00
2022-12-14T10:14:59.744Z,14.93
2022-12-14T10:17:43.280Z,15.77
2022-12-14T10:20:17.894Z,21.23
2022-12-14T10:22:49.434Z,17.43
2022-12-14T10:25:24.796Z,16.27
2022-12-14T10:28:12.923Z,15.87
2022-12-14T10:30:43.955Z,18.00
2022-12-14T10:33:29.410Z,17.83
2022-12-14T10:36:32.174Z,14.83
2022-12-14T10:39:01.870Z,17.50
2022-12-14T10:41:43.612Z,16.60
2022-12-14T10:44:39.801Z,16.83
2022-12-14T10:47:06.471Z,18.53
2022-12-14T10:50:14.003Z,17.20
2022-12-14T10:52:42.859Z,19.37
2022-12-14T10:55:28.277Z,19.23
2022-12-14T10:57:55.722Z,14.57
2022-12-14T11:00:23.329Z,19.80
2022-12-14T11:02:54.746Z,19.30
2022-12-14T11:05:41.601Z,19.33
2022-12-14T11:08:08.672Z,20.63
2022-12-14T11:10:39.142Z,16.87
2022-12-14T11:13:12.694Z,20.93
2022-12-14T11:15:51.134Z,22.20
2022-12-14T11:18:17.869Z,20.07
2022-12-14T11:20:57.244Z,18.87
2022-12-14T11:23:26.933Z,19.90
2022-12-14T11:26:02.162Z,22.77
2022-12-14T11:28:36.999Z,22.63
2022-12-14T11:31:08.172Z,18.97
2022-12-14T11:33:55.991Z,23.00
2022-12-14T11:36:41.261Z,18.33
2022-12-14T11:39:13.935Z,18.57
2022-12-14T11:41:46.508Z,16.43
2022-12-14T11:44:16.974Z,18.80
2022-12-14T11:46:59.056Z,16.53
2022-12-14T11:49:28.314Z,18.43
2022-12-14T11:52:12.320Z,19.60
2022-12-14T11:54:42.862Z,16.43
2022-12-14T11:57:22.609Z,19.97
2022-12-14T12:00:06.451Z,18.30
2022-12-14T12:02:47.309Z,17.73
2022-12-14T12:05:18.064Z,17.57
2022-12-14T12:07:50.787Z,18.57
2022-12-14T12:10:25.627Z,20.33
2022-12-14T12:13:00.676Z,18.70
2022-12-14T12:15:40.131Z,17.13
2022-12-14T12:18:18.997Z,18.67
2022-12-14T12:20:57.404Z,18.73
2022-12-14T12:23:42.198Z,19.07
2022-12-14T12:26:52.497Z,18.90
2022-12-14T12:29:25.330Z,20.30
2022-12-14T12:32:03.894Z,18.20
2022-12-14T12:35:11.460Z,18.03
2022-12-14T12:37:47.724Z,19.03
2022-12-14T12:40:34.386Z,18.30
2022-12-14T12:43:13.088Z,19.30
2022-12-14T12:45:46.519Z,19.33
2022-12-14T12:48:29.089Z,20.60
2022-12-14T12:51:02.152Z,19.73
2022-12-14T12:53:38.980Z,22.73
2022-12-14T12:56:13.370Z,22.20
2022-12-14T12:58:40.849Z,19.50
2022-12-14T13:01:34.174Z,21.43
2022-12-14T13:04:10.999Z,21.80
2022-12-14T13:06:44.486Z,22.70
2022-12-14T13:09:33.216Z,20.43
2022-12-14T13:12:02.311Z,22.43
2022-12-14T13:14:49.632Z,18.63
2022-12-14T13:17:27.837Z,20.60
2022-12-14T13:19:58.305Z,20.43
2022-12-14T13:22:33.527Z,18.13
2022-12-14T13:25:18.210Z,21.20
2022-12-14T13:28:02.738Z,20.13
2022-12-14T13:30:55.787Z,34.57
2022-12-14T13:33:51.418Z,21.73
2022-12-14T13:36:24.273Z,22.53
2022-12-14T13:39:12.545Z,18.60
2022-12-14T13:42:06.627Z,18.67
2022-12-14T13:44:57.024Z,19.57
2022-12-14T13:47:45.836Z,20.17
2022-12-14T13:50:41.888Z,21.47
2022-12-14T13:53:29.010Z,19.23
2022-12-14T13:55:58.776Z,14.47
2022-12-14T13:58:34.061Z,16.30
2022-12-14T14:01:22.891Z,19.70
2022-12-14T14:03:56.297Z,16.97
2022-12-14T14:06:29.140Z,16.63
2022-12-14T14:08:56.017Z,15.40
2022-12-14T14:11:43.781Z,17.33
2022-12-14T14:14:43.189Z,15.17
2022-12-14T14:17:24.370Z,15.27
2022-12-14T14:19:54.857Z,14.60
2022-12-14T14:22:25.311Z,15.50
2022-12-14T14:25:01.438Z,17.87
2022-12-14T14:27:37.495Z,17.23
2022-12-14T14:30:38.027Z,16.10
2022-12-14T14:33:48.079Z,15.40
2022-12-14T14:36:27.124Z,17.23
2022-12-14T14:38:55.850Z,17.93
2022-12-14T14:41:27.696Z,18.50
2022-12-14T14:43:57.861Z,18.97
2022-12-14T14:46:37.587Z,25.03
2022-12-14T14:49:06.739Z,16.97
2022-12-14T14:51:35.797Z,18.87
2022-12-14T14:54:46.296Z,15.43
2022-12-14T14:57:53.382Z,17.77
2022-12-14T15:00:20.069Z,20.13
2022-12-14T15:02:47.192Z,25.00
2022-12-14T15:08:20.681Z,21.07
2022-12-14T15:10:48.198Z,21.13
2022-12-14T15:13:20.933Z,22.60
2022-12-14T15:15:51.165Z,17.93
2022-12-14T15:18:32.874Z,18.03
2022-12-14T15:21:07.987Z,17.70
2022-12-14T15:23:53.854Z,19.70
2022-12-14T15:26:28.430Z,15.33
2022-12-14T15:28:58.251Z,15.43
2022-12-14T15:31:34.784Z,17.77
2022-12-14T15:34:03.162Z,13.53
2022-12-14T15:36:42.329Z,21.00
2022-12-14T15:39:43.500Z,21.27
2022-12-14T15:42:16.799Z,19.97
2022-12-14T15:44:51.622Z,18.30
2022-12-14T15:47:31.287Z,15.53
2022-12-14T15:50:28.399Z,14.70
2022-12-14T15:53:27.704Z,13.30
2022-12-14T15:56:01.882Z,13.03
2022-12-14T15:58:38.728Z,13.73
2022-12-14T16:01:17.815Z,13.73
2022-12-14T16:03:49.280Z,14.53
2022-12-14T16:06:17.350Z,15.10
2022-12-14T16:09:11.492Z,13.23
2022-12-14T16:11:43.464Z,12.77
2022-12-14T16:14:43.940Z,15.77
2022-12-14T16:17:18.030Z,13.70
2022-12-14T16:19:59.472Z,14.43
2022-12-14T16:22:32.753Z,14.53
2022-12-14T16:25:05.593Z,15.27
2022-12-14T16:27:36.646Z,15.67
2022-12-14T16:30:23.583Z,13.47
2022-12-14T16:33:21.192Z,18.27
2022-12-14T16:35:59.338Z,12.93
2022-12-14T16:38:26.164Z,14.30
2022-12-14T16:40:57.495Z,16.20
2022-12-14T16:43:41.287Z,14.43
2022-12-14T16:46:16.132Z,20.57
2022-12-14T16:48:45.748Z,16.53
2022-12-14T16:51:32.712Z,17.13
2022-12-14T16:54:22.100Z,15.40
2022-12-14T16:56:53.156Z,13.33
2022-12-14T16:59:23.514Z,12.37
2022-12-14T17:01:51.202Z,12.33
2022-12-14T17:04:20.902Z,15.87
2022-12-14T17:06:56.815Z,15.87
2022-12-14T17:09:26.093Z,12.10
2022-12-14T17:11:57.367Z,13.43
2022-12-14T17:14:24.763Z,11.83
2022-12-14T17:17:01.844Z,16.07
2022-12-14T17:19:37.725Z,14.03
2022-12-14T17:22:09.857Z,12.23
2022-12-14T17:24:37.419Z,15.20
2022-12-14T17:27:05.352Z,16.63
2022-12-14T17:29:33.200Z,14.10
2022-12-14T17:32:03.916Z,14.67
2022-12-14T17:34:30.958Z,16.70
2022-12-14T17:36:57.606Z,13.07
2022-12-14T17:39:24.850Z,14.80
2022-12-14T17:41:52.092Z,12.83
2022-12-14T17:44:20.483Z,18.17
2022-12-14T17:46:49.746Z,15.03
2022-12-14T17:49:17.039Z,17.10
2022-12-14T17:51:46.945Z,17.60
2022-12-14T17:54:16.515Z,18.00
2022-12-14T17:56:46.582Z,15.80
2022-12-14T17:59:13.527Z,17.47
2022-12-14T18:01:41.777Z,13.33
2022-12-14T18:04:08.936Z,17.00
2022-12-14T18:06:36.137Z,14.37
2022-12-14T18:09:05.534Z,13.67
2022-12-14T18:11:32.806Z,16.13
2022-12-14T18:14:02.504Z,17.60
2022-12-14T18:16:29.628Z,13.50
2022-12-14T18:18:57.952Z,17.57
2022-12-14T18:21:28.515Z,18.40
2022-12-14T18:23:57.232Z,15.87
2022-12-14T18:26:26.041Z,14.27
2022-12-14T18:28:54.642Z,15.20
2022-12-14T18:31:33.543Z,15.27
2022-12-14T18:34:00.646Z,16.77
2022-12-14T18:36:27.616Z,14.70
2022-12-14T18:38:55.376Z,14.70
2022-12-14T18:41:25.531Z,14.93
2022-12-14T18:43:55.621Z,17.30
2022-12-14T18:46:23.520Z,16.37
2022-12-14T18:48:50.582Z,14.87
2022-12-14T18:51:23.380Z,16.40
2022-12-14T18:53:50.996Z,14.60
2022-12-14T18:56:18.410Z,14.13
2022-12-14T18:58:46.370Z,15.87
2022-12-14T19:01:16.017Z,15.33
2022-12-14T19:03:43.479Z,15.90
2022-12-14T19:09:08.924Z,15.50
2022-12-14T19:11:39.996Z,15.30
2022-12-14T19:14:07.922Z,14.40
2022-12-14T19:16:35.062Z,18.97
2022-12-14T19:19:02.565Z,17.20
2022-12-14T19:21:31.024Z,22.23
2022-12-14T19:23:59.516Z,15.77
2022-12-14T19:26:28.609Z,15.07
2022-12-14T19:28:56.963Z,15.70
2022-12-14T19:31:25.312Z,15.43
2022-12-14T19:33:52.018Z,15.07
2022-12-14T19:36:19.951Z,17.33
2022-12-14T19:38:49.446Z,14.63
2022-12-14T19:41:20.016Z,17.47
2022-12-14T19:43:47.599Z,15.63
2022-12-14T19:46:18.176Z,16.10
2022-12-14T19:48:45.455Z,15.67
2022-12-14T19:51:13.438Z,20.43
2022-12-14T19:53:42.676Z,15.37
2022-12-14T19:56:13.280Z,17.17
2022-12-14T19:58:40.349Z,15.03
2022-12-14T20:01:12.930Z,16.67
2022-12-14T20:03:40.542Z,16.10
2022-12-14T20:06:07.999Z,14.70
2022-12-14T20:08:36.885Z,17.97
2022-12-14T20:11:10.085Z,15.13
2022-12-14T20:13:37.403Z,15.97
2022-12-14T20:16:04.421Z,17.67
2022-12-14T20:18:31.785Z,18.93
2022-12-14T20:21:08.088Z,15.60
2022-12-14T20:23:37.045Z,14.50
2022-12-14T20:26:10.732Z,16.30
2022-12-14T20:28:37.537Z,13.33
2022-12-14T20:31:07.204Z,16.20
2022-12-14T20:33:35.310Z,16.63
2022-12-14T20:36:03.555Z,15.83
2022-12-14T20:38:30.260Z,17.47
2022-12-14T20:41:04.805Z,18.37
2022-12-14T20:43:36.647Z,19.20
2022-12-14T20:46:04.830Z,14.93
2022-12-14T20:48:32.534Z,15.73
2022-12-14T20:51:02.094Z,14.30
2022-12-14T20:53:30.873Z,17.63
2022-12-14T20:56:02.785Z,15.63
2022-12-14T20:58:29.402Z,15.17
2022-12-14T21:00:56.009Z,15.70
2022-12-14T21:03:22.768Z,14.97
2022-12-14T21:05:49.559Z,15.80
2022-12-14T21:08:17.315Z,16.20
2022-12-14T21:10:43.949Z,16.73
2022-12-14T21:13:10.531Z,17.57
2022-12-14T21:15:37.315Z,16.80
2022-12-14T21:18:04.110Z,15.43
2022-12-14T21:20:30.720Z,15.07
2022-12-14T21:22:57.442Z,16.43
2022-12-14T21:25:24.423Z,18.63
2022-12-14T21:27:51.044Z,15.53
2022-12-14T21:30:18.358Z,13.67
2022-12-14T21:32:45.006Z,16.10
2022-12-14T21:35:13.170Z,12.40
2022-12-14T21:37:39.964Z,16.33
2022-12-14T21:40:08.511Z,24.57
2022-12-14T21:42:35.137Z,17.50
2022-12-14T21:45:02.525Z,13.70
2022-12-14T21:47:30.983Z,16.93
2022-12-14T21:49:57.810Z,15.17
2022-12-14T21:52:26.251Z,16.63
2022-12-14T21:54:53.138Z,21.53
2022-12-14T21:57:42.902Z,18.43
2022-12-14T22:00:16.318Z,15.93
2022-12-14T22:02:43.137Z,15.43
2022-12-14T22:05:10.953Z,20.47
2022-12-14T22:07:37.643Z,16.33
2022-12-14T22:10:04.953Z,15.97
2022-12-14T22:12:31.785Z,17.40
2022-12-14T22:14:58.414Z,17.77
2022-12-14T22:17:25.347Z,15.73
2022-12-14T22:19:54.291Z,19.80
2022-12-14T22:22:21.580Z,21.77
2022-12-14T22:24:49.471Z,16.47
2022-12-14T22:27:16.803Z,20.23
2022-12-14T22:29:43.417Z,19.30
2022-12-14T22:32:11.982Z,18.20
2022-12-14T22:34:38.843Z,20.17
2022-12-14T22:37:05.880Z,16.00
2022-12-14T22:39:32.499Z,20.97
2022-12-14T22:41:59.109Z,20.40
2022-12-14T22:44:25.890Z,16.97
2022-12-14T22:46:52.771Z,17.57
2022-12-14T22:49:19.734Z,13.97
2022-12-14T22:51:47.236Z,16.13
2022-12-14T22:54:22.356Z,18.77
2022-12-14T22:56:55.176Z,17.93
2022-12-14T22:59:30.307Z,20.07
2022-12-14T23:01:58.698Z,19.47
2022-12-14T23:04:25.787Z,17.87
2022-12-14T23:06:53.136Z,23.80
2022-12-14T23:09:38.477Z,19.07
2022-12-14T23:12:24.242Z,20.90
2022-12-14T23:15:09.557Z,19.33
2022-12-14T23:17:54.762Z,20.43
2022-12-14T23:20:40.237Z,18.37
2022-12-14T23:23:26.787Z,17.43
2022-12-14T23:26:12.432Z,16.33
2022-12-14T23:28:58.194Z,17.67
2022-12-14T23:31:43.372Z,15.97
2022-12-14T23:34:29.072Z,15.80
2022-12-14T23:37:19.881Z,17.17
2022-12-14T23:40:06.380Z,18.70
2022-12-14T23:42:51.538Z,18.07
2022-12-14T23:45:37.405Z,14.93
2022-12-14T23:48:22.687Z,16.37
2022-12-14T23:51:07.974Z,16.57
2022-12-14T23:53:53.349Z,19.53
2022-12-14T23:56:38.539Z,19.17
2022-12-14T23:59:29.936Z,18.83
